createdAt,value
2023-03-05T00:02:07.150Z,70.28
2023-03-05T00:04:35.468Z,70.73
2023-03-05T00:07:01.936Z,70.90
2023-03-05T00:09:28.352Z,70.65
2023-03-05T00:11:54.782Z,70.78
2023-03-05T00:14:21.190Z,71.05
2023-03-05T00:16:48.008Z,72.90
2023-03-05T00:19:14.543Z,73.74
2023-03-05T00:21:42.236Z,74.14
2023-03-05T00:24:13.134Z,74.86
2023-03-05T00:26:39.788Z,74.87
2023-03-05T00:29:08.103Z,75.35
2023-03-05T00:31:36.140Z,73.83
2023-03-05T00:34:07.126Z,73.64
2023-03-05T00:36:36.885Z,73.97
2023-03-05T00:39:03.673Z,72.71
2023-03-05T00:41:30.235Z,73.02
2023-03-05T00:43:56.850Z,72.59
2023-03-05T00:46:24.303Z,72.46
2023-03-05T00:48:53.380Z,71.46
2023-03-05T00:51:23.554Z,72.19
2023-03-05T00:53:50.038Z,71.84
2023-03-05T00:56:16.750Z,72.10
2023-03-05T00:58:43.156Z,72.49
2023-03-05T01:01:09.826Z,72.03
2023-03-05T01:03:36.357Z,73.40
2023-03-05T01:06:08.193Z,73.03
2023-03-05T01:08:35.884Z,73.45
2023-03-05T01:11:03.336Z,73.70
2023-03-05T01:13:29.992Z,73.01
2023-03-05T01:15:56.514Z,73.38
2023-03-05T01:18:23.032Z,72.51
2023-03-05T01:20:49.501Z,73.21
2023-03-05T01:23:15.920Z,73.30
2023-03-05T01:25:42.503Z,73.11
2023-03-05T01:28:09.161Z,73.34
2023-03-05T01:30:35.612Z,73.12
2023-03-05T01:33:02.341Z,72.72
2023-03-05T01:35:28.883Z,72.38
2023-03-05T01:37:56.194Z,73.79
2023-03-05T01:40:28.052Z,74.99
2023-03-05T01:43:23.171Z,74.90
2023-03-05T01:46:28.424Z,73.86
2023-03-05T01:49:19.556Z,73.82
2023-03-05T01:51:49.993Z,73.01
2023-03-05T01:54:19.326Z,72.62
2023-03-05T01:56:48.929Z,72.93
2023-03-05T01:59:16.591Z,71.99
2023-03-05T02:01:46.187Z,70.81
2023-03-05T02:04:16.978Z,70.91
2023-03-05T02:06:43.874Z,70.23
2023-03-05T02:09:10.378Z,71.36
2023-03-05T02:11:37.315Z,71.67
2023-03-05T02:14:04.984Z,71.21
2023-03-05T02:16:36.780Z,72.22
2023-03-05T02:19:09.969Z,71.67
2023-03-05T02:21:48.814Z,69.97
2023-03-05T02:24:18.099Z,70.33
2023-03-05T02:26:46.678Z,70.00
2023-03-05T02:29:19.164Z,70.23
2023-03-05T02:31:45.797Z,70.08
2023-03-05T02:34:12.241Z,69.66
2023-03-05T02:36:38.669Z,69.77
2023-03-05T02:39:05.255Z,69.47
2023-03-05T02:41:31.790Z,69.92
2023-03-05T02:43:58.267Z,70.62
2023-03-05T02:46:24.618Z,69.63
2023-03-05T02:48:51.191Z,69.66
2023-03-05T02:51:17.910Z,70.69
2023-03-05T02:53:44.285Z,70.29
2023-03-05T02:56:10.842Z,70.10
2023-03-05T02:58:37.256Z,69.23
2023-03-05T03:01:04.064Z,69.45
2023-03-05T03:03:30.587Z,69.67
2023-03-05T03:05:57.056Z,69.53
2023-03-05T03:08:23.469Z,68.61
2023-03-05T03:10:49.968Z,67.86
2023-03-05T03:13:16.428Z,67.07
2023-03-05T03:15:42.881Z,67.60
2023-03-05T03:18:09.507Z,67.17
2023-03-05T03:20:39.167Z,66.99
2023-03-05T03:23:06.733Z,67.26
2023-03-05T03:25:33.453Z,66.62
2023-03-05T03:27:59.873Z,67.21
2023-03-05T03:30:26.503Z,66.82
2023-03-05T03:32:53.038Z,68.53
2023-03-05T03:35:19.608Z,67.76
2023-03-05T03:37:47.262Z,67.43
2023-03-05T03:40:13.851Z,67.47
2023-03-05T03:42:40.301Z,67.85
2023-03-05T03:45:07.334Z,67.13
2023-03-05T03:47:33.736Z,67.52
2023-03-05T03:50:00.223Z,67.78
2023-03-05T03:52:26.979Z,67.62
2023-03-05T03:54:55.585Z,67.85
2023-03-05T03:57:21.987Z,66.82
2023-03-05T03:59:50.196Z,66.61
2023-03-05T04:02:16.965Z,66.15
2023-03-05T04:04:43.394Z,65.75
2023-03-05T04:07:10.049Z,66.76
2023-03-05T04:09:36.482Z,65.77
2023-03-05T04:12:03.234Z,66.05
2023-03-05T04:14:29.627Z,65.70
2023-03-05T04:16:56.086Z,65.16
2023-03-05T04:19:22.487Z,65.18
2023-03-05T04:21:48.933Z,65.37
2023-03-05T04:24:15.341Z,65.70
2023-03-05T04:26:41.839Z,65.06
2023-03-05T04:29:08.237Z,64.51
2023-03-05T04:31:34.679Z,62.97
2023-03-05T04:34:01.121Z,63.26
2023-03-05T04:36:27.633Z,63.00
2023-03-05T04:38:54.048Z,62.94
2023-03-05T04:41:20.573Z,62.55
2023-03-05T04:43:46.932Z,62.93
2023-03-05T04:46:13.353Z,63.17
2023-03-05T04:48:39.767Z,63.05
2023-03-05T04:51:06.336Z,63.36
2023-03-05T04:53:32.770Z,63.96
2023-03-05T04:56:01.379Z,64.70
2023-03-05T04:58:28.165Z,64.17
2023-03-05T05:00:54.581Z,64.26
2023-03-05T05:03:21.009Z,65.13
2023-03-05T05:05:54.353Z,65.10
2023-03-05T05:08:20.714Z,66.22
2023-03-05T05:10:58.541Z,66.63
2023-03-05T05:13:25.856Z,68.03
2023-03-05T05:15:52.516Z,68.67
2023-03-05T05:18:19.654Z,69.09
2023-03-05T05:20:46.186Z,69.41
2023-03-05T05:23:13.098Z,68.22
2023-03-05T05:25:39.544Z,69.87
2023-03-05T05:28:06.026Z,70.15
2023-03-05T05:30:32.469Z,69.81
2023-03-05T05:32:58.941Z,69.64
2023-03-05T05:35:25.442Z,69.75
2023-03-05T05:37:51.993Z,68.98
2023-03-05T05:40:18.530Z,68.90
2023-03-05T05:42:45.340Z,68.49
2023-03-05T05:45:12.432Z,68.38
2023-03-05T05:47:39.261Z,68.86
2023-03-05T05:50:06.163Z,69.84
2023-03-05T05:52:32.632Z,69.45
2023-03-05T05:54:59.113Z,69.58
2023-03-05T05:57:25.570Z,69.27
2023-03-05T05:59:52.006Z,69.00
2023-03-05T06:02:18.546Z,68.70
2023-03-05T06:04:45.085Z,68.60
2023-03-05T06:07:11.451Z,68.44
2023-03-05T06:09:37.896Z,67.22
2023-03-05T06:12:04.794Z,67.55
2023-03-05T06:14:31.245Z,66.91
2023-03-05T06:16:57.688Z,66.32
2023-03-05T06:19:24.253Z,65.54
2023-03-05T06:21:50.622Z,65.12
2023-03-05T06:24:19.260Z,64.77
2023-03-05T06:26:46.709Z,65.08
2023-03-05T06:29:13.480Z,65.34
2023-03-05T06:31:40.196Z,66.20
2023-03-05T06:34:06.765Z,65.19
2023-03-05T06:36:33.320Z,65.51
2023-03-05T06:38:59.810Z,64.77
2023-03-05T06:41:29.291Z,65.77
2023-03-05T06:43:56.453Z,66.88
2023-03-05T06:46:28.557Z,66.78
2023-03-05T06:48:57.205Z,67.34
2023-03-05T06:51:30.003Z,67.84
2023-03-05T06:54:00.971Z,68.31
2023-03-05T06:56:27.716Z,68.61
2023-03-05T06:58:54.347Z,68.93
2023-03-05T07:01:21.304Z,69.63
2023-03-05T07:03:52.898Z,69.61
2023-03-05T07:06:20.374Z,70.04
2023-03-05T07:08:47.404Z,70.02
2023-03-05T07:11:17.037Z,70.67
2023-03-05T07:13:43.897Z,70.68
2023-03-05T07:16:14.657Z,71.76
2023-03-05T07:18:41.320Z,72.71
2023-03-05T07:21:09.035Z,73.15
2023-03-05T07:23:36.636Z,72.73
2023-03-05T07:26:05.172Z,73.01
2023-03-05T07:28:32.786Z,73.02
2023-03-05T07:31:02.531Z,72.69
2023-03-05T07:33:29.261Z,73.42
2023-03-05T07:35:56.159Z,73.98
2023-03-05T07:38:22.843Z,74.27
2023-03-05T07:40:50.238Z,73.44
2023-03-05T07:43:17.407Z,72.85
2023-03-05T07:45:45.352Z,72.52
2023-03-05T07:48:18.117Z,73.07
2023-03-05T07:50:44.613Z,72.57
2023-03-05T07:53:11.133Z,72.59
2023-03-05T07:55:47.050Z,73.05
2023-03-05T07:58:14.435Z,71.34
2023-03-05T08:00:41.464Z,72.06
2023-03-05T08:03:07.932Z,71.33
2023-03-05T08:05:34.424Z,71.88
2023-03-05T08:08:00.875Z,71.71
2023-03-05T08:10:27.405Z,71.95
2023-03-05T08:12:53.948Z,72.13
2023-03-05T08:15:20.411Z,71.39
2023-03-05T08:17:46.895Z,70.96
2023-03-05T08:20:13.776Z,70.19
2023-03-05T08:22:40.299Z,71.38
2023-03-05T08:25:07.833Z,71.50
2023-03-05T08:27:38.533Z,71.61
2023-03-05T08:30:05.420Z,70.38
2023-03-05T08:32:32.108Z,69.11
2023-03-05T08:34:58.869Z,69.49
2023-03-05T08:37:25.664Z,69.88
2023-03-05T08:39:52.510Z,69.92
2023-03-05T08:42:19.170Z,69.23
2023-03-05T08:44:45.750Z,69.66
2023-03-05T08:47:12.274Z,69.43
2023-03-05T08:49:38.719Z,68.11
2023-03-05T08:52:05.472Z,66.70
2023-03-05T08:54:33.547Z,66.98
2023-03-05T08:57:00.019Z,66.63
2023-03-05T08:59:26.531Z,67.13
2023-03-05T09:01:53.072Z,67.32
2023-03-05T09:04:19.551Z,68.35
2023-03-05T09:06:46.088Z,68.28
2023-03-05T09:09:13.649Z,67.91
2023-03-05T09:11:40.100Z,69.43
2023-03-05T09:14:07.055Z,66.44
2023-03-05T09:16:33.774Z,63.69
2023-03-05T09:19:00.243Z,64.68
2023-03-05T09:21:26.640Z,62.92
2023-03-05T09:23:53.141Z,62.08
2023-03-05T09:26:20.204Z,63.01
2023-03-05T09:28:47.459Z,63.91
2023-03-05T09:31:14.174Z,63.63
2023-03-05T09:33:40.835Z,62.81
2023-03-05T09:36:19.084Z,63.60
2023-03-05T09:38:45.539Z,62.17
2023-03-05T09:41:37.906Z,62.19
2023-03-05T09:44:22.300Z,60.67
2023-03-05T09:47:05.365Z,61.89
2023-03-05T09:49:40.500Z,62.16
2023-03-05T09:52:16.556Z,61.79
2023-03-05T09:54:48.131Z,61.71
2023-03-05T09:57:23.850Z,61.62
2023-03-05T10:00:01.017Z,60.39
2023-03-05T10:02:36.738Z,61.57
2023-03-05T10:05:16.022Z,60.62
2023-03-05T10:07:45.870Z,60.22
2023-03-05T10:10:18.085Z,61.52
2023-03-05T10:12:48.688Z,62.15
2023-03-05T10:15:21.203Z,62.08
2023-03-05T10:18:14.140Z,63.22
2023-03-05T10:21:18.209Z,63.37
2023-03-05T10:23:56.743Z,62.67
2023-03-05T10:26:41.729Z,64.71
2023-03-05T10:29:23.161Z,63.02
2023-03-05T10:31:58.534Z,63.63
2023-03-05T10:34:46.830Z,65.48
2023-03-05T10:37:27.568Z,67.17
2023-03-05T10:40:09.727Z,64.29
2023-03-05T10:42:54.670Z,65.89
2023-03-05T10:45:34.797Z,65.29
2023-03-05T10:48:39.166Z,66.64
2023-03-05T10:51:33.177Z,64.50
2023-03-05T10:54:09.823Z,61.04
2023-03-05T10:56:37.122Z,62.83
2023-03-05T10:59:03.606Z,62.06
2023-03-05T11:01:31.700Z,61.77
2023-03-05T11:04:05.478Z,60.05
2023-03-05T11:06:41.308Z,59.88
2023-03-05T11:09:29.285Z,60.79
2023-03-05T11:12:15.917Z,63.51
2023-03-05T11:15:05.563Z,62.91
2023-03-05T11:17:38.304Z,62.45
2023-03-05T11:20:26.357Z,60.94
2023-03-05T11:23:23.649Z,59.24
2023-03-05T11:25:55.169Z,58.25
2023-03-05T11:28:32.865Z,59.11
2023-03-05T11:31:21.520Z,58.40
2023-03-05T11:34:06.608Z,57.59
2023-03-05T11:36:35.610Z,56.64
2023-03-05T11:39:07.951Z,58.64
2023-03-05T11:41:42.184Z,60.68
2023-03-05T11:44:16.321Z,58.61
2023-03-05T11:46:56.199Z,59.71
2023-03-05T11:49:27.933Z,58.50
2023-03-05T11:52:18.254Z,56.87
2023-03-05T11:55:00.846Z,57.20
2023-03-05T11:57:33.576Z,57.25
2023-03-05T12:00:04.670Z,58.34
2023-03-05T12:02:31.448Z,56.19
2023-03-05T12:04:59.429Z,55.42
2023-03-05T12:07:35.857Z,56.68
2023-03-05T12:10:03.718Z,54.26
2023-03-05T12:12:39.592Z,53.94
2023-03-05T12:15:12.033Z,52.69
2023-03-05T12:17:49.171Z,52.43
2023-03-05T12:20:46.624Z,52.33
2023-03-05T12:23:20.005Z,52.10
2023-03-05T12:25:46.832Z,51.93
2023-03-05T12:28:36.303Z,53.52
2023-03-05T12:31:08.810Z,53.13
2023-03-05T12:33:43.719Z,53.78
2023-03-05T12:36:34.012Z,53.87
2023-03-05T12:39:00.680Z,54.41
2023-03-05T12:41:31.043Z,55.13
2023-03-05T12:44:04.919Z,55.95
2023-03-05T12:46:45.588Z,57.54
2023-03-05T12:49:18.085Z,58.55
2023-03-05T12:51:46.751Z,58.16
2023-03-05T12:54:31.555Z,58.03
2023-03-05T12:57:02.410Z,58.42
2023-03-05T13:00:22.514Z,58.69
2023-03-05T13:02:56.132Z,58.97
2023-03-05T13:05:35.822Z,58.82
2023-03-05T13:08:23.562Z,59.06
2023-03-05T13:10:56.904Z,59.93
2023-03-05T13:13:26.416Z,60.68
2023-03-05T13:15:53.422Z,60.28
2023-03-05T13:18:28.345Z,59.44
2023-03-05T13:21:25.135Z,60.30
2023-03-05T13:23:58.169Z,58.85
2023-03-05T13:26:38.956Z,59.52
2023-03-05T13:29:19.787Z,59.78
2023-03-05T13:31:46.230Z,58.97
2023-03-05T13:34:44.559Z,60.60
2023-03-05T13:37:24.554Z,57.02
2023-03-05T13:40:01.039Z,58.58
2023-03-05T13:42:32.264Z,59.09
2023-03-05T13:45:06.792Z,59.90
2023-03-05T13:47:35.606Z,59.03
2023-03-05T13:50:06.830Z,58.23
2023-03-05T13:52:38.677Z,60.45
2023-03-05T13:55:14.651Z,60.30
2023-03-05T13:57:44.175Z,61.27
2023-03-05T14:00:38.778Z,61.01
2023-03-05T14:03:22.248Z,63.79
2023-03-05T14:05:49.973Z,63.66
2023-03-05T14:08:25.462Z,62.67
2023-03-05T14:10:54.268Z,62.83
2023-03-05T14:13:27.714Z,62.74
2023-03-05T14:16:12.690Z,64.34
2023-03-05T14:18:52.393Z,63.62
2023-03-05T14:21:19.103Z,62.37
2023-03-05T14:23:48.266Z,61.00
2023-03-05T14:26:36.537Z,61.61
2023-03-05T14:29:14.702Z,62.71
2023-03-05T14:31:54.985Z,63.32
2023-03-05T14:34:35.282Z,63.60
2023-03-05T14:37:15.770Z,64.79
2023-03-05T14:39:52.164Z,66.36
2023-03-05T14:42:30.332Z,65.65
2023-03-05T14:45:00.254Z,66.12
2023-03-05T14:47:27.725Z,65.88
2023-03-05T14:49:54.464Z,66.83
2023-03-05T14:52:23.814Z,66.19
2023-03-05T14:54:51.896Z,66.88
2023-03-05T14:57:25.122Z,67.97
2023-03-05T14:59:51.574Z,67.71
2023-03-05T15:02:20.829Z,68.27
2023-03-05T15:04:47.741Z,69.21
2023-03-05T15:07:29.129Z,70.60
2023-03-05T15:09:56.170Z,70.76
2023-03-05T15:12:25.845Z,71.15
2023-03-05T15:14:53.657Z,71.37
2023-03-05T15:17:43.070Z,69.60
2023-03-05T15:20:16.028Z,69.82
2023-03-05T15:22:42.423Z,70.05
2023-03-05T15:25:10.774Z,69.90
2023-03-05T15:27:37.673Z,70.63
2023-03-05T15:30:06.502Z,70.06
2023-03-05T15:32:33.314Z,69.85
2023-03-05T15:35:00.292Z,69.95
2023-03-05T15:37:26.999Z,69.75
2023-03-05T15:39:53.457Z,71.15
2023-03-05T15:42:19.942Z,70.65
2023-03-05T15:44:46.358Z,70.60
2023-03-05T15:47:12.963Z,70.76
2023-03-05T15:49:39.416Z,70.00
2023-03-05T15:52:05.849Z,69.72
2023-03-05T15:54:32.251Z,70.27
2023-03-05T15:56:58.650Z,71.01
2023-03-05T15:59:25.196Z,69.70
2023-03-05T16:01:51.934Z,70.24
2023-03-05T16:04:18.708Z,71.55
2023-03-05T16:06:49.451Z,72.15
2023-03-05T16:09:17.483Z,71.89
2023-03-05T16:11:47.828Z,73.72
2023-03-05T16:14:17.414Z,74.76
2023-03-05T16:16:44.597Z,74.33
2023-03-05T16:19:14.182Z,73.66
2023-03-05T16:21:40.717Z,72.53
2023-03-05T16:24:07.391Z,72.82
2023-03-05T16:26:38.428Z,72.98
2023-03-05T16:29:05.461Z,72.67
2023-03-05T16:31:34.078Z,71.96
2023-03-05T16:34:01.532Z,71.42
2023-03-05T16:36:30.310Z,73.51
2023-03-05T16:38:58.850Z,74.00
2023-03-05T16:41:26.373Z,74.54
2023-03-05T16:43:54.034Z,74.46
2023-03-05T16:46:21.073Z,73.52
2023-03-05T16:48:47.694Z,73.76
2023-03-05T16:51:14.182Z,74.93
2023-03-05T16:53:41.352Z,74.82
2023-03-05T16:56:09.390Z,74.46
2023-03-05T16:58:37.829Z,74.62
2023-03-05T17:01:10.504Z,73.96
2023-03-05T17:03:38.868Z,73.92
2023-03-05T17:06:16.612Z,74.21
2023-03-05T17:08:44.432Z,75.54
2023-03-05T17:11:12.432Z,75.31
2023-03-05T17:13:39.798Z,76.18
2023-03-05T17:16:08.196Z,76.13
2023-03-05T17:18:35.139Z,76.11
2023-03-05T17:21:02.892Z,76.77
2023-03-05T17:23:29.588Z,76.42
2023-03-05T17:25:56.063Z,76.25
2023-03-05T17:28:22.882Z,76.19
2023-03-05T17:30:49.270Z,76.54
2023-03-05T17:33:15.770Z,76.81
2023-03-05T17:35:47.180Z,77.08
2023-03-05T17:38:14.767Z,76.76
2023-03-05T17:40:41.446Z,76.82
2023-03-05T17:43:07.903Z,77.10
2023-03-05T17:45:35.343Z,77.03
2023-03-05T17:48:02.398Z,78.20
2023-03-05T17:50:28.832Z,78.56
2023-03-05T17:52:55.301Z,79.11
2023-03-05T17:55:23.989Z,81.02
2023-03-05T17:57:50.537Z,80.47
2023-03-05T18:00:20.351Z,78.07
2023-03-05T18:02:46.982Z,78.71
2023-03-05T18:05:14.073Z,78.41
2023-03-05T18:07:40.597Z,77.95
2023-03-05T18:10:07.933Z,77.40
2023-03-05T18:12:34.507Z,77.45
2023-03-05T18:15:01.000Z,77.72
2023-03-05T18:17:27.449Z,77.36
2023-03-05T18:19:53.878Z,77.02
2023-03-05T18:22:20.403Z,77.57
2023-03-05T18:24:46.834Z,77.93
2023-03-05T18:27:13.411Z,78.14
2023-03-05T18:29:39.845Z,78.35
2023-03-05T18:32:06.391Z,78.63
2023-03-05T18:34:32.870Z,78.68
2023-03-05T18:37:00.740Z,79.33
2023-03-05T18:39:33.297Z,79.11
2023-03-05T18:42:00.153Z,79.66
2023-03-05T18:44:26.931Z,79.74
2023-03-05T18:46:53.658Z,80.48
2023-03-05T18:49:20.141Z,80.39
2023-03-05T18:51:47.131Z,80.75
2023-03-05T18:54:13.574Z,81.14
2023-03-05T18:56:40.086Z,81.14
2023-03-05T18:59:06.530Z,82.82
2023-03-05T19:01:32.987Z,82.88
2023-03-05T19:03:59.472Z,82.24
2023-03-05T19:06:26.006Z,81.03
2023-03-05T19:08:57.235Z,80.72
2023-03-05T19:11:24.272Z,80.32
2023-03-05T19:13:51.521Z,80.00
2023-03-05T19:16:21.174Z,80.09
2023-03-05T19:19:06.677Z,80.58
2023-03-05T19:21:33.207Z,80.07
2023-03-05T19:23:59.635Z,80.56
2023-03-05T19:26:26.053Z,80.16
2023-03-05T19:28:52.454Z,80.61
2023-03-05T19:31:19.036Z,80.12
2023-03-05T19:33:45.464Z,80.18
2023-03-05T19:36:12.943Z,80.33
2023-03-05T19:38:39.513Z,80.08
2023-03-05T19:41:08.852Z,81.33
2023-03-05T19:43:35.680Z,80.40
2023-03-05T19:46:04.449Z,80.91
2023-03-05T19:48:31.990Z,80.63
2023-03-05T19:50:59.066Z,80.21
2023-03-05T19:53:26.186Z,80.17
2023-03-05T19:55:52.824Z,81.48
2023-03-05T19:58:19.311Z,81.50
2023-03-05T20:00:45.788Z,81.24
2023-03-05T20:03:12.534Z,81.58
2023-03-05T20:05:40.956Z,82.05
2023-03-05T20:08:07.396Z,83.73
2023-03-05T20:10:34.006Z,84.50
2023-03-05T20:13:00.457Z,85.03
2023-03-05T20:15:29.599Z,84.19
2023-03-05T20:17:57.346Z,82.72
2023-03-05T20:20:24.526Z,81.76
2023-03-05T20:22:51.108Z,81.77
2023-03-05T20:25:18.049Z,81.77
2023-03-05T20:27:44.494Z,83.48
2023-03-05T20:30:15.732Z,83.52
2023-03-05T20:32:42.258Z,85.51
2023-03-05T20:35:12.523Z,85.26
2023-03-05T20:37:49.283Z,84.01
2023-03-05T20:40:17.137Z,82.90
2023-03-05T20:42:43.766Z,82.15
2023-03-05T20:45:10.747Z,82.26
2023-03-05T20:47:46.034Z,81.77
2023-03-05T20:50:14.471Z,81.46
2023-03-05T20:52:41.153Z,81.82
2023-03-05T20:55:08.618Z,81.82
2023-03-05T20:57:35.196Z,81.70
2023-03-05T21:00:03.435Z,81.41
2023-03-05T21:02:30.509Z,80.97
2023-03-05T21:04:56.900Z,81.00
2023-03-05T21:07:24.743Z,81.42
2023-03-05T21:09:51.162Z,81.55
2023-03-05T21:12:17.556Z,81.12
2023-03-05T21:14:43.939Z,81.34
2023-03-05T21:17:10.423Z,81.51
2023-03-05T21:19:39.037Z,82.13
2023-03-05T21:22:05.608Z,82.87
2023-03-05T21:24:42.900Z,83.22
2023-03-05T21:27:09.752Z,82.24
2023-03-05T21:29:36.135Z,81.78
2023-03-05T21:32:02.816Z,81.38
2023-03-05T21:34:29.243Z,81.53
2023-03-05T21:36:55.677Z,81.06
2023-03-05T21:39:22.065Z,81.28
2023-03-05T21:41:48.495Z,81.64
2023-03-05T21:44:17.637Z,82.25
2023-03-05T21:46:44.151Z,81.59
2023-03-05T21:49:10.725Z,81.77
2023-03-05T21:51:48.865Z,81.50
2023-03-05T21:54:15.262Z,81.60
2023-03-05T21:56:41.669Z,81.80
2023-03-05T21:59:08.145Z,81.57
2023-03-05T22:01:34.757Z,82.20
2023-03-05T22:04:01.120Z,81.53
2023-03-05T22:06:27.620Z,81.49
2023-03-05T22:08:54.037Z,81.13
2023-03-05T22:11:21.092Z,81.68
2023-03-05T22:13:47.901Z,81.75
2023-03-05T22:16:24.599Z,82.11
2023-03-05T22:18:51.759Z,82.47
2023-03-05T22:21:21.928Z,82.20
2023-03-05T22:23:49.714Z,82.16
2023-03-05T22:26:16.350Z,82.53
2023-03-05T22:28:42.812Z,82.18
2023-03-05T22:31:09.945Z,82.29
2023-03-05T22:33:36.649Z,82.41
2023-03-05T22:36:10.573Z,82.73
2023-03-05T22:38:37.030Z,82.42
2023-03-05T22:41:08.725Z,82.43
2023-03-05T22:43:35.412Z,82.33
2023-03-05T22:46:09.488Z,82.68
2023-03-05T22:48:35.963Z,82.69
2023-03-05T22:51:02.453Z,82.82
2023-03-05T22:53:28.891Z,82.49
2023-03-05T22:55:55.303Z,82.01
2023-03-05T22:58:21.714Z,81.65
2023-03-05T23:00:48.714Z,81.66
2023-03-05T23:03:15.785Z,81.67
2023-03-05T23:05:42.395Z,82.40
2023-03-05T23:08:09.266Z,82.34
2023-03-05T23:10:35.840Z,82.94
2023-03-05T23:13:02.364Z,82.21
2023-03-05T23:15:34.965Z,82.34
2023-03-05T23:18:01.855Z,82.18
2023-03-05T23:20:31.526Z,81.69
2023-03-05T23:22:58.687Z,81.11
2023-03-05T23:25:28.623Z,81.00
2023-03-05T23:27:57.931Z,80.53
2023-03-05T23:30:32.135Z,79.87
2023-03-05T23:33:03.947Z,78.98
2023-03-05T23:35:33.247Z,79.04
2023-03-05T23:38:03.682Z,79.09
2023-03-05T23:40:33.264Z,78.81
2023-03-05T23:43:00.268Z,78.78
2023-03-05T23:45:28.103Z,78.61
2023-03-05T23:47:54.770Z,77.99
2023-03-05T23:50:27.606Z,78.00
2023-03-05T23:52:54.400Z,77.96
2023-03-05T23:55:23.899Z,77.60
2023-03-05T23:57:50.933Z,77.30
